Time;durP1;ratioP1;P1;durP2;ratioP2;P2;SDS_P1;SDS_P2;PMS_P1;PMS_P2;Temp;Humidity;BMP_temperature;BMP_pressure;BME280_temperature;BME280_humidity;BME280_pressure;Samples;Min_cycle;Max_cycle;Signal;HPM_P1;HPM_P2
2022/04/10 00:00:05;;;;;;;3.53;2.43;;;;;;;;;;5086395;28;24445;-53
2022/04/10 00:02:31;;;;;;;2.60;2.40;;;;;;;;;;5078638;28;24414;-52
2022/04/10 00:04:56;;;;;;;3.15;2.50;;;;;;;;;;5075815;28;24471;-52
2022/04/10 00:07:21;;;;;;;2.50;2.30;;;;;;;;;;5085676;28;24533;-52
2022/04/10 00:09:46;;;;;;;2.40;2.25;;;;;;;;;;5070048;28;24411;-53
2022/04/10 00:12:11;;;;;;;2.60;2.40;;;;;;;;;;5077231;28;24442;-53
2022/04/10 00:14:36;;;;;;;2.60;2.40;;;;;;;;;;5088861;28;24979;-53
2022/04/10 00:17:02;;;;;;;3.08;2.10;;;;;;;;;;5083946;28;24481;-52
2022/04/10 00:19:27;;;;;;;3.23;2.50;;;;;;;;;;5087179;28;24410;-52
2022/04/10 00:21:53;;;;;;;2.70;2.50;;;;;;;;;;5083918;28;24414;-52
2022/04/10 00:24:18;;;;;;;2.40;2.20;;;;;;;;;;5069654;28;24415;-53
2022/04/10 00:26:43;;;;;;;2.60;2.40;;;;;;;;;;5084215;28;24422;-52
2022/04/10 00:29:08;;;;;;;2.83;2.40;;;;;;;;;;5077057;28;24449;-52
2022/04/10 00:31:34;;;;;;;2.30;2.20;;;;;;;;;;5087943;28;24416;-52
2022/04/10 00:33:59;;;;;;;3.22;2.40;;;;;;;;;;5076776;28;24834;-53
2022/04/10 00:36:25;;;;;;;2.40;2.30;;;;;;;;;;5088046;28;24765;-52
2022/04/10 00:38:50;;;;;;;3.70;2.60;;;;;;;;;;5070321;28;25010;-52
2022/04/10 00:41:15;;;;;;;2.80;2.60;;;;;;;;;;5088778;28;24402;-52
2022/04/10 00:44:00;;;;;;;2.30;2.10;;;;;;;;;;5087730;28;25359;-53
2022/04/10 00:46:25;;;;;;;2.40;2.20;;;;;;;;;;5085861;28;24418;-53
2022/04/10 00:48:50;;;;;;;2.83;2.50;;;;;;;;;;5088962;28;24414;-52
2022/04/10 00:51:52;;;;;;;2.55;2.20;;;;;;;;;;5072299;28;24414;-52
2022/04/10 00:54:18;;;;;;;2.17;1.98;;;;;;;;;;5087350;28;24489;-52
2022/04/10 00:56:44;;;;;;;2.40;2.20;;;;;;;;;;5070256;28;24545;-53
2022/04/10 00:59:09;;;;;;;2.83;2.40;;;;;;;;;;5078090;28;24814;-52
2022/04/10 01:01:34;;;;;;;2.70;2.10;;;;;;;;;;5087553;28;24951;-52
2022/04/10 01:04:00;;;;;;;2.30;2.10;;;;;;;;;;5073589;28;24444;-52
2022/04/10 01:06:25;;;;;;;2.20;2.08;;;;;;;;;;5072086;28;24504;-52
2022/04/10 01:08:50;;;;;;;2.60;1.95;;;;;;;;;;5079530;28;24407;-52
2022/04/10 01:11:16;;;;;;;2.15;2.05;;;;;;;;;;5084602;28;24975;-52
2022/04/10 01:13:41;;;;;;;2.30;2.00;;;;;;;;;;5087189;28;24418;-52
2022/04/10 01:16:06;;;;;;;2.23;2.03;;;;;;;;;;5088226;28;25030;-53
2022/04/10 01:18:32;;;;;;;2.17;1.97;;;;;;;;;;5079121;28;24770;-52
2022/04/10 01:21:01;;;;;;;2.40;1.90;;;;;;;;;;5081391;28;24418;-53
2022/04/10 01:23:26;;;;;;;2.80;1.90;;;;;;;;;;5083504;28;24483;-53
2022/04/10 01:25:51;;;;;;;1.75;1.65;;;;;;;;;;5087256;28;24426;-52
2022/04/10 01:28:16;;;;;;;2.37;1.80;;;;;;;;;;5070629;28;24463;-53
2022/04/10 01:30:43;;;;;;;2.80;2.38;;;;;;;;;;5076522;28;24411;-52
2022/04/10 01:33:08;;;;;;;3.67;2.20;;;;;;;;;;5071437;28;24985;-53
2022/04/10 01:35:34;;;;;;;2.03;1.93;;;;;;;;;;5072580;28;24563;-53
2022/04/10 01:38:00;;;;;;;2.30;1.80;;;;;;;;;;5084706;28;24848;-53
2022/04/10 01:40:25;;;;;;;2.47;2.08;;;;;;;;;;5085454;28;24406;-53
2022/04/10 01:42:50;;;;;;;3.30;2.50;;;;;;;;;;5081510;28;24956;-53
2022/04/10 01:45:15;;;;;;;2.60;2.40;;;;;;;;;;5069468;28;24499;-52
2022/04/10 01:47:41;;;;;;;3.25;2.20;;;;;;;;;;5070369;28;24441;-53
2022/04/10 01:50:06;;;;;;;2.60;2.33;;;;;;;;;;5082114;28;24879;-53
2022/04/10 01:52:31;;;;;;;2.10;2.00;;;;;;;;;;5076842;28;24411;-53
2022/04/10 01:54:56;;;;;;;2.90;2.60;;;;;;;;;;5072740;28;24768;-53
2022/04/10 01:57:21;;;;;;;4.43;2.70;;;;;;;;;;5084320;28;25055;-52
2022/04/10 01:59:46;;;;;;;2.93;2.50;;;;;;;;;;5084741;28;24419;-52
2022/04/10 02:02:12;;;;;;;2.80;2.50;;;;;;;;;;5070560;28;24407;-52
2022/04/10 02:04:37;;;;;;;2.93;2.70;;;;;;;;;;5084827;28;24414;-52
2022/04/10 02:07:02;;;;;;;3.30;2.50;;;;;;;;;;5066634;28;24422;-53
2022/04/10 02:09:27;;;;;;;3.27;2.73;;;;;;;;;;5080841;28;24420;-53
2022/04/10 02:11:52;;;;;;;3.40;2.40;;;;;;;;;;5081885;28;24423;-53
2022/04/10 02:14:18;;;;;;;2.70;2.30;;;;;;;;;;5069273;28;24520;-52
2022/04/10 02:16:43;;;;;;;2.70;2.50;;;;;;;;;;5067799;28;24820;-53
2022/04/10 02:19:08;;;;;;;3.40;2.60;;;;;;;;;;5067426;28;24480;-52
2022/04/10 02:21:33;;;;;;;2.47;2.28;;;;;;;;;;5085178;28;24464;-52
2022/04/10 02:23:58;;;;;;;2.80;2.40;;;;;;;;;;5086910;28;24780;-52
2022/04/10 02:26:23;;;;;;;3.20;2.40;;;;;;;;;;5073798;28;24620;-51
2022/04/10 02:28:49;;;;;;;2.80;2.07;;;;;;;;;;5086228;28;24487;-51
2022/04/10 02:31:14;;;;;;;4.20;2.38;;;;;;;;;;5074667;28;24407;-51
2022/04/10 02:33:39;;;;;;;2.85;2.40;;;;;;;;;;5074722;28;24469;-51
2022/04/10 02:36:04;;;;;;;2.85;2.28;;;;;;;;;;5078056;28;24422;-52
2022/04/10 02:38:29;;;;;;;2.40;2.20;;;;;;;;;;5077218;28;24445;-53
2022/04/10 02:40:55;;;;;;;2.30;2.10;;;;;;;;;;5078376;28;24501;-53
2022/04/10 02:43:20;;;;;;;2.23;2.00;;;;;;;;;;5085724;28;24761;-53
2022/04/10 02:45:45;;;;;;;2.50;2.30;;;;;;;;;;5071774;28;24457;-53
2022/04/10 02:48:10;;;;;;;2.08;1.92;;;;;;;;;;5084395;28;24452;-53
2022/04/10 02:50:36;;;;;;;3.13;2.10;;;;;;;;;;5074115;28;24785;-53
2022/04/10 02:53:01;;;;;;;4.70;2.20;;;;;;;;;;5086297;28;24459;-52
2022/04/10 02:55:27;;;;;;;2.88;2.00;;;;;;;;;;5082199;28;24422;-53
2022/04/10 02:57:52;;;;;;;3.50;2.10;;;;;;;;;;5067222;28;25011;-53
2022/04/10 03:00:17;;;;;;;2.70;2.10;;;;;;;;;;5067895;28;24937;-53
2022/04/10 03:02:42;;;;;;;2.17;1.97;;;;;;;;;;5080489;28;24421;-53
2022/04/10 03:05:08;;;;;;;2.30;2.10;;;;;;;;;;5079650;28;24469;-52
2022/04/10 03:07:33;;;;;;;4.53;2.20;;;;;;;;;;5076504;28;24434;-53
2022/04/10 03:09:58;;;;;;;3.90;1.90;;;;;;;;;;5073165;28;24511;-52
2022/04/10 03:12:23;;;;;;;2.83;1.90;;;;;;;;;;5087178;28;24436;-52
2022/04/10 03:14:48;;;;;;;3.70;2.27;;;;;;;;;;5086737;28;24478;-53
2022/04/10 03:17:13;;;;;;;4.70;2.20;;;;;;;;;;5079155;28;24419;-52
2022/04/10 03:19:39;;;;;;;4.10;1.90;;;;;;;;;;5068506;28;24411;-53
2022/04/10 03:22:05;;;;;;;4.82;2.20;;;;;;;;;;5071570;28;24949;-53
2022/04/10 03:24:30;;;;;;;3.50;2.20;;;;;;;;;;5072563;28;24438;-53
2022/04/10 03:26:55;;;;;;;3.95;2.28;;;;;;;;;;5071548;28;25249;-53
2022/04/10 03:29:20;;;;;;;2.63;1.97;;;;;;;;;;5080271;28;24426;-53
2022/04/10 03:31:46;;;;;;;2.47;2.10;;;;;;;;;;5085462;28;24576;-53
2022/04/10 03:34:11;;;;;;;2.20;2.00;;;;;;;;;;5067843;28;24411;-53
2022/04/10 03:36:36;;;;;;;4.97;2.40;;;;;;;;;;5069255;28;24407;-52
2022/04/10 03:39:03;;;;;;;2.53;1.90;;;;;;;;;;5066236;28;21286;-52
2022/04/10 03:41:28;;;;;;;4.20;2.10;;;;;;;;;;5074154;28;24403;-52
2022/04/10 03:43:53;;;;;;;3.45;2.47;;;;;;;;;;5085409;28;25027;-52
2022/04/10 03:46:18;;;;;;;4.15;2.35;;;;;;;;;;5088420;28;24956;-52
2022/04/10 03:48:43;;;;;;;4.20;2.20;;;;;;;;;;5081643;28;24493;-52
2022/04/10 03:51:09;;;;;;;5.57;2.20;;;;;;;;;;5078611;28;24775;-52
2022/04/10 03:53:34;;;;;;;3.95;2.40;;;;;;;;;;5084509;28;24764;-52
2022/04/10 03:55:59;;;;;;;5.43;2.50;;;;;;;;;;5082205;28;24445;-52
2022/04/10 03:58:24;;;;;;;2.70;2.00;;;;;;;;;;5070611;28;24495;-52
2022/04/10 04:00:50;;;;;;;4.87;2.30;;;;;;;;;;5072116;28;24460;-52
2022/04/10 04:03:15;;;;;;;3.75;2.40;;;;;;;;;;5070849;28;24418;-52
2022/04/10 04:05:40;;;;;;;4.43;2.10;;;;;;;;;;5073700;28;24457;-52
2022/04/10 04:08:05;;;;;;;5.27;2.50;;;;;;;;;;5085577;28;24421;-53
2022/04/10 04:10:31;;;;;;;4.37;2.30;;;;;;;;;;5071643;28;24596;-52
2022/04/10 04:12:56;;;;;;;4.05;2.08;;;;;;;;;;5085865;28;24505;-53
2022/04/10 04:15:21;;;;;;;2.35;2.15;;;;;;;;;;5088977;28;24449;-52
2022/04/10 04:17:46;;;;;;;3.55;1.98;;;;;;;;;;5075321;28;24414;-53
2022/04/10 04:20:13;;;;;;;3.65;1.90;;;;;;;;;;5071027;28;24498;-52
2022/04/10 04:22:38;;;;;;;4.68;2.30;;;;;;;;;;5069569;28;25205;-52
2022/04/10 04:25:05;;;;;;;3.87;2.10;;;;;;;;;;5080788;28;24411;-52
2022/04/10 04:27:30;;;;;;;2.67;2.43;;;;;;;;;;5074466;28;24518;-53
2022/04/10 04:29:55;;;;;;;3.90;2.35;;;;;;;;;;5080591;28;24706;-52
2022/04/10 04:32:20;;;;;;;4.65;2.75;;;;;;;;;;5081397;28;24414;-52
2022/04/10 04:34:49;;;;;;;4.00;2.90;;;;;;;;;;5087442;28;24421;-52
2022/04/10 04:37:14;;;;;;;4.05;2.30;;;;;;;;;;5071773;28;24450;-52
2022/04/10 04:39:39;;;;;;;2.50;2.30;;;;;;;;;;5079685;28;24818;-52
2022/04/10 04:42:05;;;;;;;2.65;2.05;;;;;;;;;;5081422;28;24454;-52
2022/04/10 04:44:30;;;;;;;3.30;2.30;;;;;;;;;;5071626;28;24501;-52
2022/04/10 04:46:56;;;;;;;4.70;2.55;;;;;;;;;;5076184;28;24455;-52
2022/04/10 04:49:21;;;;;;;3.95;2.30;;;;;;;;;;5079959;28;24423;-51
2022/04/10 04:51:46;;;;;;;6.53;2.72;;;;;;;;;;5078347;28;25131;-53
2022/04/10 04:54:11;;;;;;;5.20;2.50;;;;;;;;;;5071424;28;24446;-52
2022/04/10 04:56:36;;;;;;;3.85;2.50;;;;;;;;;;5079529;28;24426;-52
2022/04/10 04:59:02;;;;;;;4.20;2.50;;;;;;;;;;5085587;28;25002;-53
2022/04/10 05:01:27;;;;;;;4.65;2.60;;;;;;;;;;5075946;28;24417;-52
2022/04/10 05:03:52;;;;;;;3.80;2.30;;;;;;;;;;5081270;28;24459;-53
2022/04/10 05:06:17;;;;;;;4.07;2.30;;;;;;;;;;5088581;28;24976;-53
2022/04/10 05:08:46;;;;;;;5.33;2.40;;;;;;;;;;5076597;28;24845;-52
2022/04/10 05:11:11;;;;;;;4.35;2.60;;;;;;;;;;5077070;28;24762;-52
2022/04/10 05:13:36;;;;;;;4.80;2.53;;;;;;;;;;5083434;28;24444;-53
2022/04/10 05:16:02;;;;;;;3.90;2.33;;;;;;;;;;5074801;28;24426;-53
2022/04/10 05:18:27;;;;;;;4.10;2.40;;;;;;;;;;5072180;28;24407;-53
2022/04/10 05:20:52;;;;;;;3.97;2.10;;;;;;;;;;5085857;28;24470;-52
2022/04/10 05:23:18;;;;;;;3.07;2.43;;;;;;;;;;5080106;28;24423;-52
2022/04/10 05:25:43;;;;;;;4.07;2.50;;;;;;;;;;5084786;28;24502;-52
2022/04/10 05:28:08;;;;;;;5.07;2.57;;;;;;;;;;5079305;28;24422;-52
2022/04/10 05:30:33;;;;;;;4.00;2.60;;;;;;;;;;5107960;28;24499;-53
2022/04/10 05:32:58;;;;;;;3.17;2.40;;;;;;;;;;5073481;28;24984;-53
2022/04/10 05:35:23;;;;;;;3.92;2.33;;;;;;;;;;5074778;28;24984;-52
2022/04/10 05:37:49;;;;;;;3.22;2.20;;;;;;;;;;5073336;28;24987;-53
2022/04/10 05:40:14;;;;;;;4.80;2.50;;;;;;;;;;5086376;28;24612;-53
2022/04/10 05:42:43;;;;;;;4.10;2.40;;;;;;;;;;5074357;28;24396;-52
2022/04/10 05:45:09;;;;;;;4.77;2.40;;;;;;;;;;5073424;28;24970;-52
2022/04/10 05:47:36;;;;;;;3.55;2.40;;;;;;;;;;5085584;28;24584;-52
2022/04/10 05:50:02;;;;;;;5.82;2.75;;;;;;;;;;5069026;28;24514;-53
2022/04/10 05:52:27;;;;;;;4.90;2.53;;;;;;;;;;5070664;28;24552;-52
2022/04/10 05:54:52;;;;;;;4.05;2.45;;;;;;;;;;5072579;28;24449;-51
2022/04/10 05:57:17;;;;;;;3.90;2.67;;;;;;;;;;5074938;28;25223;-52
2022/04/10 05:59:42;;;;;;;2.92;2.47;;;;;;;;;;5077931;28;24407;-52
2022/04/10 06:02:07;;;;;;;3.22;2.45;;;;;;;;;;5075716;28;24456;-53
2022/04/10 06:04:33;;;;;;;3.93;2.50;;;;;;;;;;5074863;28;24496;-53
2022/04/10 06:06:58;;;;;;;2.90;2.60;;;;;;;;;;5080017;28;24418;-53
2022/04/10 06:09:23;;;;;;;3.60;2.40;;;;;;;;;;5074417;28;24477;-53
2022/04/10 06:11:48;;;;;;;2.40;2.20;;;;;;;;;;5071565;28;24503;-52
2022/04/10 06:14:13;;;;;;;3.00;2.22;;;;;;;;;;5073946;28;24418;-53
2022/04/10 06:16:38;;;;;;;4.47;2.20;;;;;;;;;;5072119;28;25064;-52
2022/04/10 06:19:03;;;;;;;4.80;2.50;;;;;;;;;;5073174;28;24426;-51
2022/04/10 06:21:29;;;;;;;4.43;2.55;;;;;;;;;;5077647;28;24422;-53
2022/04/10 06:23:54;;;;;;;3.10;2.30;;;;;;;;;;5063817;28;25068;-52
2022/04/10 06:26:20;;;;;;;4.90;2.33;;;;;;;;;;5069164;28;24472;-52
2022/04/10 06:28:45;;;;;;;3.03;2.10;;;;;;;;;;5073214;28;24893;-53
2022/04/10 06:31:10;;;;;;;5.75;2.70;;;;;;;;;;5083258;28;24494;-52
2022/04/10 06:33:35;;;;;;;5.05;2.72;;;;;;;;;;5071897;28;24968;-53
2022/04/10 06:36:00;;;;;;;3.00;2.70;;;;;;;;;;5068916;28;24551;-52
2022/04/10 06:38:25;;;;;;;3.58;2.88;;;;;;;;;;5066839;28;24419;-52
2022/04/10 06:40:51;;;;;;;4.07;2.30;;;;;;;;;;5075152;28;24961;-52
2022/04/10 06:43:16;;;;;;;3.88;2.60;;;;;;;;;;5078504;28;24410;-53
2022/04/10 06:45:42;;;;;;;6.63;2.80;;;;;;;;;;5076433;28;24468;-53
2022/04/10 06:48:07;;;;;;;3.23;2.40;;;;;;;;;;5073556;28;24433;-52
2022/04/10 06:50:32;;;;;;;3.97;3.30;;;;;;;;;;5069555;28;24460;-52
2022/04/10 06:52:57;;;;;;;4.40;2.78;;;;;;;;;;5072915;28;24957;-52
2022/04/10 06:55:22;;;;;;;3.75;3.28;;;;;;;;;;5072667;28;24968;-52
2022/04/10 06:57:47;;;;;;;3.70;3.20;;;;;;;;;;5073823;28;24433;-54
2022/04/10 07:00:13;;;;;;;3.73;3.03;;;;;;;;;;5076457;28;24430;-52
2022/04/10 07:02:38;;;;;;;3.50;3.20;;;;;;;;;;5071306;28;24471;-53
2022/04/10 07:05:03;;;;;;;3.70;3.23;;;;;;;;;;5078580;28;24445;-52
2022/04/10 07:07:29;;;;;;;3.05;2.60;;;;;;;;;;5075083;28;24788;-52
2022/04/10 07:09:54;;;;;;;5.03;3.03;;;;;;;;;;5069053;28;24414;-51
2022/04/10 07:12:19;;;;;;;5.68;2.70;;;;;;;;;;5073907;28;24403;-52
2022/04/10 07:14:44;;;;;;;5.75;2.90;;;;;;;;;;5078233;28;24409;-52
2022/04/10 07:17:09;;;;;;;5.10;2.90;;;;;;;;;;5073011;28;24410;-52
2022/04/10 07:19:34;;;;;;;6.50;3.10;;;;;;;;;;5074354;28;24494;-53
2022/04/10 07:24:43;;;;;;;7.13;2.90;;;;;;;;;;5089313;28;24517;-55
2022/04/10 07:27:08;;;;;;;4.50;3.50;;;;;;;;;;5071156;28;24880;-52
2022/04/10 07:29:33;;;;;;;6.00;3.50;;;;;;;;;;5083040;28;24438;-52
2022/04/10 07:31:59;;;;;;;4.40;3.15;;;;;;;;;;5075663;28;24444;-52
2022/04/10 07:34:24;;;;;;;4.37;3.30;;;;;;;;;;5073340;28;24745;-52
2022/04/10 07:36:49;;;;;;;4.40;3.05;;;;;;;;;;5070859;28;24493;-52
2022/04/10 07:39:14;;;;;;;4.82;2.75;;;;;;;;;;5070616;28;24533;-52
2022/04/10 07:41:39;;;;;;;6.03;3.20;;;;;;;;;;5070995;28;24383;-53
2022/04/10 07:44:04;;;;;;;3.80;3.10;;;;;;;;;;5070333;28;24436;-52
2022/04/10 07:49:14;;;;;;;4.50;3.53;;;;;;;;;;5070630;28;24472;-52
2022/04/10 07:51:39;;;;;;;5.47;3.53;;;;;;;;;;5070385;28;24967;-52
2022/04/10 07:54:04;;;;;;;3.70;3.10;;;;;;;;;;5070437;28;24391;-52
2022/04/10 07:56:29;;;;;;;4.50;3.17;;;;;;;;;;5070185;28;24749;-53
2022/04/10 07:58:55;;;;;;;4.32;3.20;;;;;;;;;;5070278;28;24378;-53
2022/04/10 08:01:20;;;;;;;4.95;3.13;;;;;;;;;;5070211;28;24438;-52
2022/04/10 08:03:51;;;;;;;3.88;2.70;;;;;;;;;;5070037;28;24395;-52
2022/04/10 08:06:16;;;;;;;4.60;3.20;;;;;;;;;;5080835;28;24807;-53
2022/04/10 08:08:41;;;;;;;3.57;3.03;;;;;;;;;;5086687;28;24732;-53
2022/04/10 08:11:07;;;;;;;5.60;3.50;;;;;;;;;;5090158;28;24444;-52
2022/04/10 08:13:33;;;;;;;7.43;4.17;;;;;;;;;;5090225;28;25053;-53
2022/04/10 08:15:58;;;;;;;6.70;4.50;;;;;;;;;;5088003;28;25107;-54
2022/04/10 08:18:23;;;;;;;4.50;3.45;;;;;;;;;;5088464;28;24827;-52
2022/04/10 08:20:49;;;;;;;4.35;3.65;;;;;;;;;;5090304;28;24944;-52
2022/04/10 08:23:15;;;;;;;3.97;3.55;;;;;;;;;;5090084;28;24405;-53
2022/04/10 08:25:40;;;;;;;5.28;3.80;;;;;;;;;;5090255;28;24793;-53
2022/04/10 08:28:06;;;;;;;4.72;3.70;;;;;;;;;;5085929;28;24402;-53
2022/04/10 08:30:31;;;;;;;6.63;3.90;;;;;;;;;;5089730;28;24488;-53
2022/04/10 08:32:56;;;;;;;4.50;3.55;;;;;;;;;;5087876;28;24490;-52
2022/04/10 08:35:21;;;;;;;5.00;3.70;;;;;;;;;;5089764;28;24398;-53
2022/04/10 08:37:46;;;;;;;4.20;3.40;;;;;;;;;;5089897;28;24473;-53
2022/04/10 08:40:12;;;;;;;5.50;3.60;;;;;;;;;;5089790;28;24477;-52
2022/04/10 08:42:38;;;;;;;5.33;3.60;;;;;;;;;;5075433;28;25077;-54
2022/04/10 08:45:03;;;;;;;3.70;3.30;;;;;;;;;;5069590;28;24394;-52
2022/04/10 08:47:29;;;;;;;4.45;3.30;;;;;;;;;;5068860;28;24476;-54
2022/04/10 08:49:54;;;;;;;4.30;3.90;;;;;;;;;;5069209;28;24475;-53
2022/04/10 08:52:21;;;;;;;3.93;3.53;;;;;;;;;;5069501;28;24502;-53
2022/04/10 08:54:47;;;;;;;6.22;3.40;;;;;;;;;;5069115;28;25000;-54
2022/04/10 08:57:13;;;;;;;4.77;3.70;;;;;;;;;;5069026;28;25076;-53
2022/04/10 08:59:38;;;;;;;6.00;3.83;;;;;;;;;;5069383;28;24403;-52
2022/04/10 09:02:04;;;;;;;7.97;4.10;;;;;;;;;;5070379;28;24730;-53
2022/04/10 09:04:31;;;;;;;4.68;3.63;;;;;;;;;;5088900;28;24765;-54
2022/04/10 09:07:02;;;;;;;5.28;3.60;;;;;;;;;;5089279;28;24418;-53
2022/04/10 09:09:27;;;;;;;8.30;4.10;;;;;;;;;;5089576;28;24523;-53
2022/04/10 09:11:53;;;;;;;4.53;3.50;;;;;;;;;;5089054;28;24489;-50
2022/04/10 09:14:22;;;;;;;5.60;3.78;;;;;;;;;;5068212;28;24411;-51
2022/04/10 09:17:08;;;;;;;5.95;3.92;;;;;;;;;;5068617;28;24977;-52
2022/04/10 09:19:36;;;;;;;6.90;3.65;;;;;;;;;;5069107;28;24482;-50
2022/04/10 09:22:20;;;;;;;4.13;3.70;;;;;;;;;;5068752;28;24948;-52
2022/04/10 09:25:01;;;;;;;5.47;4.05;;;;;;;;;;5087040;28;24568;-52
2022/04/10 09:27:33;;;;;;;6.10;3.83;;;;;;;;;;5088744;28;24495;-51
2022/04/10 09:29:59;;;;;;;7.20;3.53;;;;;;;;;;5088508;28;24517;-53
2022/04/10 09:32:41;;;;;;;4.50;4.10;;;;;;;;;;5088692;28;24932;-51
2022/04/10 09:35:07;;;;;;;6.50;4.10;;;;;;;;;;5069846;28;24501;-52
2022/04/10 09:37:33;;;;;;;5.13;3.50;;;;;;;;;;5066092;28;24499;-52
2022/04/10 09:40:17;;;;;;;4.57;3.38;;;;;;;;;;5068225;28;24476;-51
2022/04/10 09:42:42;;;;;;;4.05;3.70;;;;;;;;;;5067553;28;24796;-51
2022/04/10 09:45:25;;;;;;;4.43;4.03;;;;;;;;;;5068112;28;24468;-52
2022/04/10 09:47:50;;;;;;;7.20;4.00;;;;;;;;;;5068007;28;24426;-52
2022/04/10 09:50:15;;;;;;;4.80;3.40;;;;;;;;;;5068127;28;24464;-52
2022/04/10 09:52:41;;;;;;;6.03;4.23;;;;;;;;;;5067935;28;24923;-52
2022/04/10 09:55:08;;;;;;;5.95;3.83;;;;;;;;;;5067524;28;24430;-51
2022/04/10 09:57:34;;;;;;;6.40;4.10;;;;;;;;;;5068101;28;24456;-52
2022/04/10 10:00:00;;;;;;;6.57;3.90;;;;;;;;;;5068009;28;24990;-52
2022/04/10 10:02:25;;;;;;;4.50;3.92;;;;;;;;;;5068286;28;24493;-52
2022/04/10 10:04:50;;;;;;;6.53;3.70;;;;;;;;;;5086172;28;24485;-52
2022/04/10 10:07:20;;;;;;;5.33;3.80;;;;;;;;;;5087631;28;24481;-52
2022/04/10 10:09:48;;;;;;;6.25;4.10;;;;;;;;;;5087796;28;24912;-52
2022/04/10 10:12:14;;;;;;;7.43;4.60;;;;;;;;;;5087771;28;24805;-51
2022/04/10 10:14:39;;;;;;;5.22;4.20;;;;;;;;;;5088118;28;24440;-52
2022/04/10 10:17:05;;;;;;;7.33;4.37;;;;;;;;;;5085689;28;24868;-52
2022/04/10 10:19:34;;;;;;;6.60;2.80;;;;;;;;;;5088106;28;24422;-53
2022/04/10 10:21:59;;;;;;;5.20;3.03;;;;;;;;;;5087985;28;24428;-53
2022/04/10 10:24:25;;;;;;;5.90;3.30;;;;;;;;;;5087628;28;24394;-53
2022/04/10 10:26:54;;;;;;;5.97;3.25;;;;;;;;;;5086476;28;24815;-53
2022/04/10 10:29:28;;;;;;;8.43;4.03;;;;;;;;;;5087225;28;24426;-53
2022/04/10 10:31:53;;;;;;;7.32;3.70;;;;;;;;;;5087655;28;24387;-52
2022/04/10 10:34:21;;;;;;;5.60;4.10;;;;;;;;;;5087351;28;24490;-55
2022/04/10 10:36:47;;;;;;;6.55;4.85;;;;;;;;;;5083407;28;24438;-53
2022/04/10 10:39:12;;;;;;;6.22;4.30;;;;;;;;;;5071150;28;24773;-53
2022/04/10 10:41:38;;;;;;;6.72;4.10;;;;;;;;;;5079187;28;24468;-53
2022/04/10 10:44:21;;;;;;;7.03;5.00;;;;;;;;;;5082335;28;24453;-53
2022/04/10 10:46:57;;;;;;;8.43;4.50;;;;;;;;;;5079752;28;24521;-53
2022/04/10 10:49:22;;;;;;;5.07;4.50;;;;;;;;;;5072150;28;24958;-53
2022/04/10 10:51:51;;;;;;;7.72;4.88;;;;;;;;;;5080481;28;24502;-53
2022/04/10 10:54:25;;;;;;;7.37;4.80;;;;;;;;;;5084949;28;25031;-53
2022/04/10 10:56:50;;;;;;;6.40;4.32;;;;;;;;;;5070224;28;24884;-53
2022/04/10 10:59:23;;;;;;;5.28;4.20;;;;;;;;;;5072988;28;24939;-52
2022/04/10 11:01:59;;;;;;;6.60;4.60;;;;;;;;;;5068782;28;24471;-52
2022/04/10 11:04:25;;;;;;;4.30;3.80;;;;;;;;;;5068389;28;24454;-52
2022/04/10 11:06:50;;;;;;;6.22;4.38;;;;;;;;;;5071644;28;24520;-52
2022/04/10 11:09:23;;;;;;;5.07;4.13;;;;;;;;;;5079938;28;24506;-53
2022/04/10 11:11:49;;;;;;;5.60;4.00;;;;;;;;;;5086684;28;24956;-51
2022/04/10 11:14:30;;;;;;;6.45;4.10;;;;;;;;;;5083795;28;24445;-52
2022/04/10 11:17:06;;;;;;;6.60;3.72;;;;;;;;;;5066701;28;24426;-52
2022/04/10 11:19:31;;;;;;;4.83;3.00;;;;;;;;;;5070215;28;24438;-52
2022/04/10 11:21:56;;;;;;;4.20;3.30;;;;;;;;;;5072703;28;24419;-51
2022/04/10 11:24:22;;;;;;;7.53;4.13;;;;;;;;;;5080964;28;24414;-52
2022/04/10 11:26:48;;;;;;;5.38;3.40;;;;;;;;;;5077276;28;24444;-52
2022/04/10 11:29:15;;;;;;;5.20;3.03;;;;;;;;;;5062452;28;24521;-51
2022/04/10 11:31:44;;;;;;;9.07;3.30;;;;;;;;;;5066842;28;24415;-53
2022/04/10 11:34:15;;;;;;;5.10;2.60;;;;;;;;;;5068369;28;24525;-52
2022/04/10 11:36:55;;;;;;;4.95;2.92;;;;;;;;;;5068813;28;24588;-52
2022/04/10 11:39:24;;;;;;;5.55;3.13;;;;;;;;;;5070295;28;24414;-52
2022/04/10 11:41:50;;;;;;;5.03;3.00;;;;;;;;;;5085980;28;24414;-52
2022/04/10 11:44:16;;;;;;;5.20;3.00;;;;;;;;;;5072802;28;24990;-52
2022/04/10 11:46:44;;;;;;;4.22;3.20;;;;;;;;;;5066956;28;24437;-52
2022/04/10 11:49:09;;;;;;;4.30;3.10;;;;;;;;;;5064818;28;24408;-53
2022/04/10 11:51:48;;;;;;;5.30;3.83;;;;;;;;;;5076687;28;24459;-52
2022/04/10 11:54:22;;;;;;;4.37;3.40;;;;;;;;;;5073019;28;24428;-52
2022/04/10 11:56:47;;;;;;;5.15;3.00;;;;;;;;;;5084157;28;24783;-52
2022/04/10 11:59:12;;;;;;;3.65;2.85;;;;;;;;;;5079708;28;24981;-52
2022/04/10 12:01:39;;;;;;;3.47;2.60;;;;;;;;;;5071555;28;24422;-52
2022/04/10 12:04:06;;;;;;;4.55;2.30;;;;;;;;;;5068072;28;24456;-52
2022/04/10 12:06:31;;;;;;;5.22;3.30;;;;;;;;;;5079459;28;24510;-52
2022/04/10 12:08:56;;;;;;;4.57;2.90;;;;;;;;;;5077718;28;24956;-52
2022/04/10 12:11:22;;;;;;;3.83;3.07;;;;;;;;;;5076632;28;24467;-52
2022/04/10 12:13:47;;;;;;;4.50;2.40;;;;;;;;;;5075296;28;26207;-52
2022/04/10 12:16:19;;;;;;;3.83;2.27;;;;;;;;;;5080180;28;24979;-52
2022/04/10 12:18:51;;;;;;;3.85;1.92;;;;;;;;;;5069072;28;24410;-52
2022/04/10 12:21:17;;;;;;;2.30;1.67;;;;;;;;;;5072313;28;24443;-50
2022/04/10 12:23:42;;;;;;;3.92;1.80;;;;;;;;;;5082226;28;24469;-52
2022/04/10 12:26:08;;;;;;;4.63;1.80;;;;;;;;;;5067921;28;24422;-54
2022/04/10 12:28:33;;;;;;;2.20;1.80;;;;;;;;;;5085958;28;24437;-53
2022/04/10 12:31:00;;;;;;;4.00;2.10;;;;;;;;;;5080564;28;24832;-51
2022/04/10 12:33:26;;;;;;;3.77;2.10;;;;;;;;;;5072935;28;24521;-54
2022/04/10 12:35:51;;;;;;;4.60;2.10;;;;;;;;;;5066828;28;24453;-51
2022/04/10 12:38:16;;;;;;;3.35;2.42;;;;;;;;;;5068565;28;24472;-55
2022/04/10 12:40:41;;;;;;;3.67;2.57;;;;;;;;;;5068572;28;24419;-53
2022/04/10 12:43:07;;;;;;;3.80;2.40;;;;;;;;;;5067080;28;24437;-54
2022/04/10 12:45:33;;;;;;;3.70;2.63;;;;;;;;;;5077110;28;24418;-51
2022/04/10 12:47:59;;;;;;;3.42;2.55;;;;;;;;;;5066679;28;24531;-54
2022/04/10 12:50:25;;;;;;;4.60;2.90;;;;;;;;;;5068089;28;24509;-54
2022/04/10 12:52:55;;;;;;;3.22;2.50;;;;;;;;;;5075751;28;24978;-55
2022/04/10 12:55:20;;;;;;;3.80;2.58;;;;;;;;;;5072673;28;24411;-54
2022/04/10 12:57:52;;;;;;;3.67;2.63;;;;;;;;;;5069728;28;24487;-54
2022/04/10 13:00:28;;;;;;;3.92;2.70;;;;;;;;;;5073599;28;24414;-55
2022/04/10 13:02:53;;;;;;;3.53;2.67;;;;;;;;;;5073318;28;24840;-54
2022/04/10 13:05:18;;;;;;;3.30;2.50;;;;;;;;;;5085928;28;24513;-54
2022/04/10 13:08:00;;;;;;;4.33;2.70;;;;;;;;;;5070318;28;24516;-54
2022/04/10 13:10:26;;;;;;;3.30;2.45;;;;;;;;;;5066045;28;24460;-54
2022/04/10 13:13:02;;;;;;;4.63;2.77;;;;;;;;;;5073917;28;24406;-55
2022/04/10 13:15:31;;;;;;;3.30;2.50;;;;;;;;;;5071903;28;24442;-52
2022/04/10 13:17:57;;;;;;;3.53;2.50;;;;;;;;;;5077309;28;24420;-53
2022/04/10 13:20:26;;;;;;;3.78;2.60;;;;;;;;;;5068512;28;25401;-54
2022/04/10 13:22:51;;;;;;;2.92;2.30;;;;;;;;;;5070829;28;24510;-52
2022/04/10 13:25:16;;;;;;;3.20;2.10;;;;;;;;;;5071848;28;24884;-53
2022/04/10 13:27:42;;;;;;;3.20;2.40;;;;;;;;;;5081359;28;25020;-53
2022/04/10 13:30:07;;;;;;;2.90;2.00;;;;;;;;;;5077681;28;25079;-53
2022/04/10 13:32:32;;;;;;;3.30;2.10;;;;;;;;;;5087282;28;24516;-51
2022/04/10 13:34:57;;;;;;;2.20;2.00;;;;;;;;;;5068289;28;24392;-52
2022/04/10 13:37:23;;;;;;;2.70;1.90;;;;;;;;;;5069079;28;24425;-53
2022/04/10 13:39:48;;;;;;;4.30;2.37;;;;;;;;;;5069846;28;24450;-53
2022/04/10 13:42:13;;;;;;;3.50;2.10;;;;;;;;;;5067997;28;24419;-52
2022/04/10 13:44:39;;;;;;;3.45;1.70;;;;;;;;;;5068268;28;24950;-52
2022/04/10 13:47:04;;;;;;;3.10;1.92;;;;;;;;;;5074072;28;24477;-53
2022/04/10 13:49:29;;;;;;;3.70;2.00;;;;;;;;;;5071992;28;24411;-53
2022/04/10 13:51:54;;;;;;;3.70;2.30;;;;;;;;;;5067955;28;24395;-53
2022/04/10 13:54:19;;;;;;;3.08;2.10;;;;;;;;;;5068310;28;24472;-52
2022/04/10 13:56:45;;;;;;;2.40;1.60;;;;;;;;;;5072510;28;24467;-53
2022/04/10 13:59:10;;;;;;;2.22;1.60;;;;;;;;;;5068700;28;24415;-53
2022/04/10 14:01:35;;;;;;;2.83;1.80;;;;;;;;;;5068205;28;24444;-52
2022/04/10 14:04:01;;;;;;;2.83;1.63;;;;;;;;;;5078720;28;24777;-52
2022/04/10 14:06:26;;;;;;;2.08;1.70;;;;;;;;;;5076309;28;24960;-53
2022/04/10 14:08:51;;;;;;;2.97;1.83;;;;;;;;;;5081401;28;24513;-51
2022/04/10 14:11:16;;;;;;;3.40;1.90;;;;;;;;;;5086197;28;24443;-51
2022/04/10 14:13:41;;;;;;;1.90;1.50;;;;;;;;;;5072037;28;25122;-53
2022/04/10 14:16:07;;;;;;;3.80;1.80;;;;;;;;;;5071369;28;24514;-52
2022/04/10 14:18:32;;;;;;;2.33;1.88;;;;;;;;;;5075059;28;24418;-51
2022/04/10 14:20:57;;;;;;;3.55;1.80;;;;;;;;;;5075552;28;24411;-53
2022/04/10 14:23:22;;;;;;;2.90;1.70;;;;;;;;;;5074578;28;24832;-52
2022/04/10 14:25:47;;;;;;;2.20;1.97;;;;;;;;;;5070000;28;24848;-53
2022/04/10 14:28:18;;;;;;;2.90;1.80;;;;;;;;;;5079732;28;24995;-53
2022/04/10 14:30:44;;;;;;;2.45;2.25;;;;;;;;;;5076538;28;24445;-53
2022/04/10 14:33:09;;;;;;;2.00;1.77;;;;;;;;;;5073600;28;24861;-53
2022/04/10 14:35:34;;;;;;;3.38;2.35;;;;;;;;;;5083837;28;24547;-54
2022/04/10 14:37:59;;;;;;;3.53;2.40;;;;;;;;;;5082836;28;24422;-53
2022/04/10 14:40:25;;;;;;;3.30;2.50;;;;;;;;;;5081905;28;24948;-53
2022/04/10 14:42:50;;;;;;;3.13;2.83;;;;;;;;;;5081222;28;24553;-53